Time;durP1;ratioP1;P1;durP2;ratioP2;P2;SDS_P1;SDS_P2;PMS_P1;PMS_P2;Temp;Humidity;BMP_temperature;BMP_pressure;BME280_temperature;BME280_humidity;BME280_pressure;Samples;Min_cycle;Max_cycle;Signal;HPM_P1;HPM_P2
2022/03/28 00:01:40;;;;;;;10.32;7.50;;;6.40;90.40;;;;;;5110889;28;20206;-70
2022/03/28 00:04:07;;;;;;;10.93;7.00;;;6.30;90.10;;;;;;5111155;28;20199;-70
2022/03/28 00:06:34;;;;;;;10.20;6.97;;;6.30;90.00;;;;;;5110751;28;20226;-70
2022/03/28 00:09:00;;;;;;;13.88;7.40;;;6.30;90.10;;;;;;5110784;28;20225;-70
2022/03/28 00:11:27;;;;;;;11.27;6.95;;;6.30;89.70;;;;;;5110173;28;20597;-70
2022/03/28 00:13:54;;;;;;;14.57;7.32;;;6.20;89.90;;;;;;5111140;28;20254;-70
2022/03/28 00:16:21;;;;;;;11.73;6.80;;;6.20;90.00;;;;;;5110247;28;20348;-70
2022/03/28 00:18:49;;;;;;;9.10;6.95;;;6.20;89.70;;;;;;5109125;28;20669;-70
2022/03/28 00:21:16;;;;;;;14.30;7.90;;;6.10;89.60;;;;;;5111176;28;20207;-68
2022/03/28 00:23:43;;;;;;;10.35;6.97;;;6.00;89.80;;;;;;5110280;28;20211;-68
2022/03/28 00:26:10;;;;;;;13.70;6.70;;;6.10;90.00;;;;;;5110918;28;20225;-68
2022/03/28 00:28:37;;;;;;;12.00;7.43;;;6.00;90.00;;;;;;5110165;28;20207;-68
2022/03/28 00:31:04;;;;;;;11.00;6.95;;;6.00;90.20;;;;;;5110622;28;20199;-68
2022/03/28 00:33:30;;;;;;;11.98;7.85;;;5.90;90.40;;;;;;5110927;28;20223;-68
2022/03/28 00:35:58;;;;;;;10.07;6.90;;;5.90;90.40;;;;;;5110107;28;20222;-68
2022/03/28 00:38:25;;;;;;;10.20;6.75;;;5.80;90.30;;;;;;5109755;28;20211;-68
2022/03/28 00:40:52;;;;;;;9.65;6.38;;;5.80;90.40;;;;;;5110640;28;20205;-68
2022/03/28 00:43:19;;;;;;;10.40;7.25;;;5.70;90.30;;;;;;5110889;28;20191;-68
2022/03/28 00:45:46;;;;;;;10.27;6.60;;;5.70;90.40;;;;;;5110314;28;20227;-69
2022/03/28 00:48:13;;;;;;;14.15;8.50;;;5.60;90.50;;;;;;5108650;28;20199;-68
2022/03/28 00:50:41;;;;;;;9.00;6.38;;;5.60;90.50;;;;;;5111036;28;20207;-68
2022/03/28 00:53:12;;;;;;;14.68;7.00;;;5.60;90.60;;;;;;5110014;28;20343;-68
2022/03/28 00:55:39;;;;;;;10.82;7.35;;;5.50;90.80;;;;;;5110549;28;20227;-68
2022/03/28 00:58:06;;;;;;;11.85;7.80;;;5.50;90.60;;;;;;5109714;28;20203;-68
2022/03/28 01:00:33;;;;;;;10.93;7.03;;;5.50;90.60;;;;;;5109541;28;20203;-70
2022/03/28 01:03:00;;;;;;;11.65;6.70;;;5.50;90.60;;;;;;5109893;28;20658;-68
2022/03/28 01:05:27;;;;;;;13.27;7.80;;;5.50;90.60;;;;;;5109809;28;20891;-68
2022/03/28 01:07:55;;;;;;;12.00;7.35;;;5.40;90.60;;;;;;5110053;28;20226;-68
2022/03/28 01:10:24;;;;;;;11.85;6.85;;;5.40;90.40;;;;;;5112105;28;20195;-68
2022/03/28 01:12:51;;;;;;;9.43;6.53;;;5.30;90.50;;;;;;5111708;28;20371;-68
2022/03/28 01:15:18;;;;;;;8.68;7.15;;;5.30;90.70;;;;;;5112063;28;20223;-68
2022/03/28 01:20:31;;;;;;;11.95;8.32;;;5.30;90.60;;;;;;5111300;28;20764;-71
2022/03/28 01:22:59;;;;;;;12.20;7.10;;;5.30;90.50;;;;;;5110401;28;20229;-70
2022/03/28 01:25:29;;;;;;;15.32;7.13;;;5.20;90.30;;;;;;5110750;28;20233;-69
2022/03/28 01:27:58;;;;;;;14.18;7.78;;;5.20;90.30;;;;;;5110165;28;20202;-71
2022/03/28 01:30:26;;;;;;;11.68;7.22;;;5.20;90.30;;;;;;5111184;28;20199;-70
2022/03/28 01:32:53;;;;;;;13.10;7.03;;;5.10;90.10;;;;;;5110602;28;20253;-70
2022/03/28 01:35:28;;;;;;;11.75;9.73;;;5.10;90.20;;;;;;5110879;28;20626;-70
2022/03/28 01:37:55;;;;;;;12.13;6.68;;;5.10;90.00;;;;;;5110269;28;20206;-70
2022/03/28 01:40:23;;;;;;;9.63;6.88;;;5.10;90.00;;;;;;5110979;28;20226;-70
2022/03/28 01:42:50;;;;;;;11.05;7.03;;;5.00;89.80;;;;;;5110970;28;20195;-70
2022/03/28 01:45:18;;;;;;;13.15;6.68;;;5.00;90.00;;;;;;5110535;28;20218;-70
2022/03/28 01:47:45;;;;;;;10.77;7.50;;;5.00;89.90;;;;;;5110370;28;20678;-70
2022/03/28 01:50:12;;;;;;;12.73;6.72;;;5.00;89.80;;;;;;5110871;28;20210;-70
2022/03/28 01:52:38;;;;;;;12.43;6.90;;;4.90;89.90;;;;;;5110738;28;20203;-70
2022/03/28 01:55:06;;;;;;;10.43;6.55;;;4.90;90.10;;;;;;5110689;28;20570;-70
2022/03/28 01:57:34;;;;;;;10.98;7.50;;;4.90;90.00;;;;;;5110659;28;20203;-70
2022/03/28 02:00:01;;;;;;;10.30;6.70;;;4.80;90.10;;;;;;5112140;28;20213;-70
2022/03/28 02:02:28;;;;;;;12.25;7.80;;;4.80;90.10;;;;;;5111354;28;20202;-70
2022/03/28 02:04:55;;;;;;;9.98;6.43;;;4.80;90.30;;;;;;5111291;28;20260;-70
2022/03/28 02:07:21;;;;;;;9.80;6.55;;;4.70;90.30;;;;;;5110549;28;20248;-70
2022/03/28 02:09:48;;;;;;;11.73;7.63;;;4.70;90.30;;;;;;5110395;28;20618;-70
2022/03/28 02:12:15;;;;;;;10.40;6.63;;;4.70;90.20;;;;;;5110783;28;20211;-70
2022/03/28 02:14:43;;;;;;;11.85;7.35;;;4.70;90.30;;;;;;5114139;28;20223;-70
2022/03/28 02:17:10;;;;;;;14.90;7.30;;;4.70;90.10;;;;;;5114086;28;20199;-70
2022/03/28 02:19:37;;;;;;;9.77;6.95;;;4.70;90.30;;;;;;5114459;28;20202;-70
2022/03/28 02:22:04;;;;;;;10.65;7.38;;;4.70;90.30;;;;;;5114183;28;20237;-70
2022/03/28 02:24:31;;;;;;;13.25;7.50;;;4.60;90.20;;;;;;5114507;28;20282;-70
2022/03/28 02:26:57;;;;;;;10.90;7.07;;;4.60;90.30;;;;;;5113171;28;20239;-70
2022/03/28 02:29:24;;;;;;;10.25;6.20;;;4.60;90.30;;;;;;5114449;28;20199;-70
2022/03/28 02:31:52;;;;;;;11.68;7.88;;;4.60;90.40;;;;;;5114033;28;20203;-70
2022/03/28 02:34:19;;;;;;;8.70;6.50;;;4.50;90.40;;;;;;5114294;28;20238;-70
2022/03/28 02:36:45;;;;;;;11.82;8.05;;;4.50;90.40;;;;;;5113313;28;20223;-70
2022/03/28 02:39:12;;;;;;;12.25;7.43;;;4.50;90.40;;;;;;5114106;28;20277;-70
2022/03/28 02:41:39;;;;;;;10.38;6.90;;;4.50;90.50;;;;;;5114039;28;20202;-70
2022/03/28 02:44:05;;;;;;;12.40;7.70;;;4.40;90.90;;;;;;5113538;28;20571;-70
2022/03/28 02:46:32;;;;;;;12.70;7.15;;;4.40;90.70;;;;;;5113995;28;20230;-70
2022/03/28 02:49:00;;;;;;;13.13;8.05;;;4.40;90.90;;;;;;5113224;28;20207;-70
2022/03/28 02:51:27;;;;;;;12.23;7.90;;;4.40;90.90;;;;;;5113906;28;20206;-70
2022/03/28 02:53:54;;;;;;;10.88;6.70;;;4.40;90.80;;;;;;5113598;28;20327;-70
2022/03/28 02:56:20;;;;;;;12.13;7.10;;;4.40;90.70;;;;;;5113378;28;20226;-70
2022/03/28 02:58:48;;;;;;;10.88;7.05;;;4.30;90.70;;;;;;5112917;28;20210;-70
2022/03/28 03:01:15;;;;;;;12.85;7.47;;;4.20;90.70;;;;;;5113381;28;20207;-70
2022/03/28 03:03:42;;;;;;;10.70;6.72;;;4.30;90.60;;;;;;5113556;28;20202;-70
2022/03/28 03:06:10;;;;;;;9.48;6.25;;;4.20;90.70;;;;;;5113126;28;20230;-70
2022/03/28 03:08:37;;;;;;;16.60;7.20;;;4.20;91.00;;;;;;5112941;28;20206;-70
2022/03/28 03:11:03;;;;;;;11.57;7.10;;;4.20;91.00;;;;;;5113301;28;20207;-70
2022/03/28 03:13:30;;;;;;;11.82;6.72;;;4.10;90.90;;;;;;5113135;28;20807;-70
2022/03/28 03:15:58;;;;;;;11.05;7.32;;;4.10;91.00;;;;;;5113238;28;20218;-70
2022/03/28 03:18:25;;;;;;;14.65;8.15;;;4.10;91.00;;;;;;5112536;28;20206;-70
2022/03/28 03:20:52;;;;;;;12.18;7.28;;;4.10;91.00;;;;;;5113180;28;20572;-70
2022/03/28 03:23:20;;;;;;;11.32;7.25;;;4.10;90.80;;;;;;5112971;28;20681;-70
2022/03/28 03:25:48;;;;;;;15.60;8.10;;;4.10;90.90;;;;;;5112360;28;20222;-70
2022/03/28 03:28:15;;;;;;;14.35;7.03;;;4.10;90.90;;;;;;5112853;28;20670;-70
2022/03/28 03:30:42;;;;;;;11.38;7.50;;;4.10;90.90;;;;;;5113279;28;20199;-70
2022/03/28 03:33:09;;;;;;;10.85;7.43;;;4.10;91.00;;;;;;5113183;28;20251;-69
2022/03/28 03:35:36;;;;;;;14.25;8.07;;;4.10;91.10;;;;;;5108879;28;20211;-70
2022/03/28 03:38:03;;;;;;;16.92;7.65;;;4.10;91.20;;;;;;5099915;28;20191;-70
2022/03/28 03:40:31;;;;;;;12.70;7.32;;;4.10;91.30;;;;;;5102357;28;20193;-70
2022/03/28 03:42:58;;;;;;;13.13;7.50;;;4.10;91.10;;;;;;5100721;28;20191;-70
2022/03/28 03:45:24;;;;;;;9.10;6.80;;;4.10;91.20;;;;;;5100304;28;20702;-70
2022/03/28 03:47:51;;;;;;;9.00;6.53;;;4.10;91.20;;;;;;5096572;28;20192;-70
2022/03/28 03:50:18;;;;;;;12.40;7.25;;;4.10;91.40;;;;;;5101325;28;20549;-71
2022/03/28 03:52:45;;;;;;;10.50;6.95;;;4.10;91.40;;;;;;5100990;28;20200;-75
2022/03/28 03:55:12;;;;;;;10.15;6.65;;;4.10;91.20;;;;;;5181752;22;20223;-68
2022/03/28 03:57:40;;;;;;;9.60;6.50;;;4.10;91.20;;;;;;5111507;28;20201;-68
2022/03/28 04:00:08;;;;;;;7.95;6.25;;;4.10;91.20;;;;;;5111677;28;20207;-67
2022/03/28 04:02:36;;;;;;;12.05;7.95;;;4.00;91.20;;;;;;5113178;28;20620;-68
2022/03/28 04:05:03;;;;;;;12.55;7.05;;;4.00;91.30;;;;;;5112620;28;20232;-68
2022/03/28 04:07:30;;;;;;;11.60;7.07;;;4.00;91.40;;;;;;5111499;28;20203;-68
2022/03/28 04:09:59;;;;;;;13.73;8.18;;;3.90;91.50;;;;;;5111903;28;20218;-68
2022/03/28 04:12:26;;;;;;;10.50;7.18;;;3.80;91.60;;;;;;5111781;28;20199;-68
2022/03/28 04:14:58;;;;;;;9.77;7.05;;;3.80;91.50;;;;;;5111556;28;20226;-68
2022/03/28 04:17:25;;;;;;;10.75;7.13;;;3.80;91.70;;;;;;5111229;28;20297;-68
2022/03/28 04:19:52;;;;;;;11.57;8.00;;;3.80;91.70;;;;;;5111889;28;20195;-68
2022/03/28 04:22:18;;;;;;;12.43;7.40;;;3.80;91.80;;;;;;5111426;28;20203;-68
2022/03/28 04:24:45;;;;;;;12.00;8.27;;;3.80;91.70;;;;;;5111369;28;20454;-67
2022/03/28 04:27:13;;;;;;;18.13;9.23;;;3.70;91.80;;;;;;5110637;28;20221;-68
2022/03/28 04:29:40;;;;;;;13.13;7.40;;;3.70;91.90;;;;;;5109530;28;20230;-68
2022/03/28 04:32:09;;;;;;;9.88;7.30;;;3.70;91.90;;;;;;5089087;28;20200;-68
2022/03/28 04:34:36;;;;;;;14.55;7.57;;;3.70;92.00;;;;;;5088428;28;20226;-68
2022/03/28 04:37:02;;;;;;;11.30;7.95;;;3.70;92.10;;;;;;5087930;28;20905;-68
2022/03/28 04:39:29;;;;;;;19.38;8.45;;;3.70;92.10;;;;;;5088432;28;20200;-67
2022/03/28 04:41:56;;;;;;;15.23;7.93;;;3.60;92.10;;;;;;5088672;28;20204;-67
2022/03/28 04:44:23;;;;;;;13.25;7.05;;;3.60;92.30;;;;;;5088096;28;20203;-68
2022/03/28 04:46:49;;;;;;;13.30;8.13;;;3.50;92.60;;;;;;5088806;28;20219;-68
2022/03/28 04:49:18;;;;;;;11.80;7.90;;;3.40;92.70;;;;;;5090697;28;20548;-67
2022/03/28 04:51:44;;;;;;;14.02;7.90;;;3.40;92.80;;;;;;5091109;28;20203;-67
2022/03/28 04:54:11;;;;;;;12.52;8.70;;;3.40;92.80;;;;;;5090497;28;20215;-67
2022/03/28 04:56:38;;;;;;;15.75;8.00;;;3.40;92.90;;;;;;5090207;28;20707;-67
2022/03/28 04:59:04;;;;;;;17.65;8.20;;;3.40;93.00;;;;;;5090766;28;20686;-67
2022/03/28 05:01:31;;;;;;;11.32;7.00;;;3.30;93.20;;;;;;5090770;28;20200;-67
2022/03/28 05:03:58;;;;;;;11.93;8.40;;;3.20;93.30;;;;;;5090762;28;20608;-68
2022/03/28 05:06:26;;;;;;;14.05;7.38;;;3.10;93.40;;;;;;5090481;28;20220;-68
2022/03/28 05:08:53;;;;;;;13.32;7.13;;;3.10;93.50;;;;;;5090268;28;20204;-68
2022/03/28 05:11:22;;;;;;;14.18;8.95;;;3.10;93.70;;;;;;5090336;28;20203;-68
2022/03/28 05:13:49;;;;;;;13.25;8.60;;;3.00;93.80;;;;;;5090744;28;20199;-67
2022/03/28 05:16:16;;;;;;;12.32;7.80;;;3.00;93.80;;;;;;5090385;28;20227;-68
2022/03/28 05:18:43;;;;;;;11.55;8.07;;;3.00;94.00;;;;;;5090085;28;20200;-67
2022/03/28 05:21:09;;;;;;;12.15;7.82;;;3.00;94.10;;;;;;5090482;28;20211;-67
2022/03/28 05:23:37;;;;;;;15.27;8.93;;;3.10;94.10;;;;;;5090551;28;20207;-68
2022/03/28 05:26:04;;;;;;;14.43;8.85;;;3.10;93.80;;;;;;5090262;28;20241;-68
2022/03/28 05:28:31;;;;;;;11.95;7.53;;;3.10;93.70;;;;;;5089818;28;20203;-68
2022/03/28 05:30:58;;;;;;;11.18;8.00;;;3.10;93.80;;;;;;5090506;28;20685;-68
2022/03/28 05:33:25;;;;;;;11.02;7.97;;;3.00;93.90;;;;;;5090425;28;20615;-68
2022/03/28 05:35:54;;;;;;;12.18;7.68;;;3.00;94.00;;;;;;5089876;28;20223;-68
2022/03/28 05:38:21;;;;;;;13.45;8.45;;;3.00;94.00;;;;;;5089431;28;20260;-67
2022/03/28 05:40:50;;;;;;;11.98;8.93;;;3.00;94.10;;;;;;5089936;28;20675;-67
2022/03/28 05:43:17;;;;;;;14.02;7.93;;;3.00;94.20;;;;;;5090256;28;20207;-68
2022/03/28 05:45:44;;;;;;;13.75;8.35;;;3.10;94.30;;;;;;5090395;28;20242;-68
2022/03/28 05:48:10;;;;;;;15.88;8.80;;;3.10;94.40;;;;;;5091076;28;20253;-68
2022/03/28 05:50:37;;;;;;;14.80;7.50;;;3.20;94.50;;;;;;5094496;28;20203;-68
2022/03/28 05:53:04;;;;;;;20.08;8.05;;;3.20;94.60;;;;;;5094499;28;20231;-68
2022/03/28 05:55:31;;;;;;;16.88;9.18;;;3.20;94.40;;;;;;5094447;28;20224;-68
2022/03/28 05:58:00;;;;;;;13.07;8.13;;;3.30;94.50;;;;;;5093775;28;20235;-68
2022/03/28 06:00:27;;;;;;;15.70;9.13;;;3.30;94.40;;;;;;5094389;28;20609;-68
2022/03/28 06:02:55;;;;;;;15.25;8.88;;;3.40;94.50;;;;;;5094413;28;20637;-68
2022/03/28 06:05:22;;;;;;;15.45;9.05;;;3.50;94.70;;;;;;5094078;28;20398;-68
2022/03/28 06:07:49;;;;;;;19.10;8.75;;;3.50;94.40;;;;;;5093679;28;20657;-68
2022/03/28 06:10:16;;;;;;;14.27;7.95;;;3.60;94.40;;;;;;5094033;28;20206;-68
2022/03/28 06:12:43;;;;;;;16.50;10.40;;;3.70;94.40;;;;;;5203992;22;20224;-68
2022/03/28 06:15:12;;;;;;;12.63;9.25;;;3.80;94.40;;;;;;5100830;28;20686;-68
2022/03/28 06:17:39;;;;;;;14.90;8.68;;;3.90;94.60;;;;;;5114043;28;20202;-67
2022/03/28 06:20:07;;;;;;;18.95;10.00;;;4.00;94.40;;;;;;5114211;28;20689;-68
2022/03/28 06:22:35;;;;;;;18.08;9.00;;;4.10;94.60;;;;;;5114429;28;20202;-68
2022/03/28 06:25:02;;;;;;;23.50;9.70;;;4.30;94.80;;;;;;5114082;28;20263;-68
2022/03/28 06:27:29;;;;;;;19.75;11.43;;;4.50;94.50;;;;;;5113877;28;20203;-68
2022/03/28 06:29:55;;;;;;;15.10;8.65;;;4.60;94.30;;;;;;5113949;28;20199;-67
2022/03/28 06:32:23;;;;;;;15.43;9.20;;;4.70;94.20;;;;;;5114017;28;20597;-68
2022/03/28 06:34:52;;;;;;;16.48;11.00;;;4.90;94.30;;;;;;5114036;28;20697;-68
2022/03/28 06:37:22;;;;;;;20.88;10.73;;;5.10;94.40;;;;;;5113327;28;20289;-67
2022/03/28 06:39:49;;;;;;;12.45;8.68;;;5.20;94.40;;;;;;5114151;28;20576;-68
2022/03/28 06:42:15;;;;;;;22.33;9.88;;;5.40;94.30;;;;;;5113717;28;20199;-68
2022/03/28 06:44:42;;;;;;;18.00;9.55;;;5.50;94.20;;;;;;5113694;28;20202;-68
2022/03/28 06:47:09;;;;;;;19.92;10.10;;;5.60;94.00;;;;;;5113086;28;20578;-68
2022/03/28 06:49:37;;;;;;;18.67;9.82;;;5.80;93.80;;;;;;5113863;28;20195;-68
2022/03/28 06:52:04;;;;;;;18.73;9.02;;;6.00;93.70;;;;;;5113421;28;20242;-68
2022/03/28 06:54:31;;;;;;;21.33;9.55;;;6.10;93.50;;;;;;5113684;28;20223;-68
2022/03/28 06:56:58;;;;;;;23.42;11.07;;;6.30;93.30;;;;;;5112844;28;20296;-67
2022/03/28 06:59:24;;;;;;;15.73;9.80;;;6.40;92.90;;;;;;5112333;28;20248;-68
2022/03/28 07:01:51;;;;;;;18.45;9.77;;;6.60;92.70;;;;;;5113470;28;20659;-68
2022/03/28 07:04:20;;;;;;;20.58;10.20;;;6.70;92.40;;;;;;5113651;28;20686;-68
2022/03/28 07:06:48;;;;;;;24.17;10.68;;;6.90;92.30;;;;;;5112986;28;20227;-68
2022/03/28 07:09:15;;;;;;;17.98;9.35;;;7.10;92.30;;;;;;5091350;28;20229;-68
2022/03/28 07:11:42;;;;;;;18.90;9.90;;;7.30;92.00;;;;;;5112424;28;20615;-69
2022/03/28 07:14:08;;;;;;;15.35;10.00;;;7.40;91.90;;;;;;5112160;28;20488;-68
2022/03/28 07:16:35;;;;;;;18.67;10.18;;;7.60;91.60;;;;;;5111962;28;20636;-68
2022/03/28 07:19:02;;;;;;;19.20;10.07;;;7.80;91.60;;;;;;5111855;28;20572;-69
2022/03/28 07:21:29;;;;;;;19.92;9.88;;;8.00;91.50;;;;;;5112379;28;20802;-68
2022/03/28 07:23:57;;;;;;;14.38;10.45;;;8.20;91.30;;;;;;5111632;28;20195;-68
2022/03/28 07:26:24;;;;;;;20.73;10.30;;;8.50;91.10;;;;;;5111348;28;20219;-68
2022/03/28 07:28:50;;;;;;;18.02;10.98;;;8.80;91.00;;;;;;5111627;28;20205;-69
2022/03/28 07:31:18;;;;;;;17.83;10.70;;;9.20;90.70;;;;;;5111496;28;20203;-70
2022/03/28 07:33:45;;;;;;;17.90;10.63;;;9.70;89.90;;;;;;5112036;28;20248;-69
2022/03/28 07:36:12;;;;;;;19.13;10.23;;;10.30;87.30;;;;;;5110979;28;20246;-67
2022/03/28 07:38:39;;;;;;;15.93;10.98;;;10.70;84.50;;;;;;5110579;28;20690;-66
2022/03/28 07:41:07;;;;;;;20.48;10.30;;;11.20;84.80;;;;;;5111533;28;20596;-67
2022/03/28 07:43:33;;;;;;;17.95;9.85;;;11.70;83.80;;;;;;5111691;28;20206;-69
2022/03/28 07:46:00;;;;;;;20.00;10.10;;;12.20;82.80;;;;;;5111077;28;20211;-67
2022/03/28 07:48:27;;;;;;;16.20;10.30;;;12.90;81.20;;;;;;5110480;28;20468;-67
2022/03/28 07:50:55;;;;;;;17.80;10.53;;;13.50;80.30;;;;;;5111806;28;20477;-68
2022/03/28 07:53:23;;;;;;;18.20;10.37;;;14.10;78.40;;;;;;5110935;28;20452;-67
2022/03/28 07:55:49;;;;;;;18.07;9.60;;;14.70;76.50;;;;;;5111480;28;20485;-67
2022/03/28 07:58:17;;;;;;;19.93;11.27;;;15.20;75.00;;;;;;5110578;28;20986;-67
2022/03/28 08:00:44;;;;;;;16.50;10.00;;;15.70;74.30;;;;;;5111250;28;20457;-67
2022/03/28 08:03:11;;;;;;;17.43;11.50;;;16.20;73.20;;;;;;5111432;28;20485;-68
2022/03/28 08:05:38;;;;;;;14.53;10.73;;;16.60;72.30;;;;;;5110995;28;20472;-68
2022/03/28 08:08:05;;;;;;;20.47;11.23;;;16.90;71.50;;;;;;5110402;28;21067;-67
2022/03/28 08:10:32;;;;;;;18.70;11.20;;;17.40;70.20;;;;;;5098782;28;20471;-68
2022/03/28 08:13:01;;;;;;;16.50;11.17;;;17.80;69.60;;;;;;5110589;28;20963;-67
2022/03/28 08:15:30;;;;;;;18.77;12.20;;;18.10;68.20;;;;;;5110106;28;20492;-68
2022/03/28 08:17:58;;;;;;;19.33;11.00;;;18.40;67.90;;;;;;5110669;28;20461;-67
2022/03/28 08:20:25;;;;;;;17.40;11.13;;;18.60;68.40;;;;;;5110851;28;21018;-68
2022/03/28 08:22:54;;;;;;;16.97;11.03;;;19.10;67.80;;;;;;5110362;28;20468;-68
2022/03/28 08:25:22;;;;;;;15.40;10.87;;;19.40;67.30;;;;;;5109890;28;20978;-68
2022/03/28 08:27:49;;;;;;;18.30;11.73;;;19.40;67.70;;;;;;5110048;28;20456;-68
2022/03/28 08:30:17;;;;;;;17.73;11.07;;;19.80;66.90;;;;;;5110226;28;20468;-67
2022/03/28 08:32:46;;;;;;;17.30;11.47;;;20.40;66.30;;;;;;5110693;28;20457;-68
2022/03/28 08:35:14;;;;;;;20.30;11.27;;;20.70;64.20;;;;;;5109901;28;20485;-68
2022/03/28 08:37:41;;;;;;;22.97;11.43;;;21.00;65.00;;;;;;5109341;28;20463;-68
2022/03/28 08:40:08;;;;;;;18.40;12.37;;;21.70;63.60;;;;;;5110350;28;20485;-68
2022/03/28 08:42:35;;;;;;;20.23;11.70;;;22.10;61.60;;;;;;5110569;28;20460;-68
2022/03/28 08:45:03;;;;;;;15.97;12.57;;;22.60;61.60;;;;;;5109285;28;21014;-68
2022/03/28 08:47:31;;;;;;;21.63;11.47;;;23.20;60.10;;;;;;5109514;28;20835;-68
2022/03/28 08:49:59;;;;;;;18.10;11.73;;;23.40;60.00;;;;;;5109689;28;20460;-67
2022/03/28 08:52:25;;;;;;;21.10;11.70;;;23.80;59.90;;;;;;5109850;28;20465;-68
2022/03/28 08:54:53;;;;;;;25.10;12.73;;;24.10;60.20;;;;;;5110073;28;20531;-68
2022/03/28 08:57:20;;;;;;;16.40;12.83;;;24.00;58.80;;;;;;5109285;28;20456;-68
2022/03/28 08:59:46;;;;;;;18.97;13.33;;;23.60;60.00;;;;;;5109869;28;20464;-68
2022/03/28 09:02:39;;;;;;;16.50;11.93;;;23.90;59.00;;;;;;5109404;28;20453;-68
2022/03/28 09:05:08;;;;;;;20.67;13.27;;;24.20;59.40;;;;;;5109855;28;20504;-68
2022/03/28 09:07:34;;;;;;;14.40;12.60;;;24.40;58.60;;;;;;5110087;28;20809;-68
2022/03/28 09:10:03;;;;;;;16.17;12.23;;;24.60;58.60;;;;;;5110806;28;20452;-67
2022/03/28 09:12:30;;;;;;;14.90;11.83;;;25.20;57.80;;;;;;5086470;28;20481;-68
2022/03/28 09:14:58;;;;;;;15.43;11.93;;;25.90;56.80;;;;;;5071615;28;20490;-68
2022/03/28 09:17:26;;;;;;;15.83;12.67;;;26.60;55.60;;;;;;5071026;28;20495;-67
2022/03/28 09:19:55;;;;;;;15.70;13.17;;;27.10;54.60;;;;;;5071172;28;20462;-68
2022/03/28 09:22:24;;;;;;;17.33;12.37;;;27.40;55.70;;;;;;5069757;28;20508;-68
2022/03/28 09:24:53;;;;;;;22.43;13.40;;;27.30;55.00;;;;;;5070136;28;20466;-68
2022/03/28 09:27:21;;;;;;;20.83;13.60;;;27.10;54.30;;;;;;5069753;28;20462;-68
2022/03/28 09:29:59;;;;;;;17.43;12.80;;;27.40;54.00;;;;;;5069985;28;20529;-68
2022/03/28 09:32:27;;;;;;;21.93;12.60;;;27.90;54.00;;;;;;5070164;28;20470;-68
2022/03/28 09:35:03;;;;;;;17.63;12.63;;;28.40;53.50;;;;;;5069816;28;22130;-68
2022/03/28 09:37:32;;;;;;;19.20;12.47;;;28.40;51.00;;;;;;5069641;28;20553;-68
2022/03/28 09:39:58;;;;;;;15.93;12.17;;;28.20;52.20;;;;;;5070447;28;20464;-68
2022/03/28 09:42:25;;;;;;;18.50;12.57;;;28.20;50.80;;;;;;5070023;28;20871;-68
2022/03/28 09:44:53;;;;;;;17.60;13.00;;;27.90;51.30;;;;;;5070158;28;20456;-68
2022/03/28 09:47:22;;;;;;;17.60;12.80;;;27.60;50.60;;;;;;5069662;28;20477;-68
2022/03/28 09:49:50;;;;;;;17.73;13.80;;;27.10;51.30;;;;;;5069827;28;20466;-68
2022/03/28 09:52:18;;;;;;;16.67;12.60;;;26.90;52.80;;;;;;5069994;28;20451;-68
2022/03/28 09:54:51;;;;;;;17.17;12.70;;;27.30;54.30;;;;;;5171565;22;20597;-71
2022/03/28 09:57:21;;;;;;;14.20;12.40;;;28.10;52.90;;;;;;5071832;28;20987;-69
2022/03/28 09:59:48;;;;;;;16.80;13.30;;;28.80;52.10;;;;;;5090008;28;20497;-69
2022/03/28 10:02:20;;;;;;;14.90;12.20;;;29.20;51.80;;;;;;5090153;28;20464;-70
2022/03/28 10:04:50;;;;;;;16.00;12.90;;;29.30;51.70;;;;;;5089562;28;20470;-69
2022/03/28 10:07:17;;;;;;;17.23;11.80;;;29.80;51.80;;;;;;5089787;28;20488;-69
2022/03/28 10:09:44;;;;;;;19.40;12.73;;;30.40;50.80;;;;;;5089820;28;20465;-69
2022/03/28 10:12:13;;;;;;;17.07;12.37;;;30.70;50.50;;;;;;5090005;28;20523;-69
2022/03/28 10:14:40;;;;;;;16.90;13.13;;;31.00;49.20;;;;;;5089717;28;20469;-70
2022/03/28 10:17:08;;;;;;;14.53;12.40;;;31.00;48.50;;;;;;5089206;28;21040;-70
2022/03/28 10:19:37;;;;;;;13.90;12.40;;;31.00;48.70;;;;;;5089752;28;20462;-70
2022/03/28 10:22:07;;;;;;;15.30;12.47;;;31.10;49.80;;;;;;5089390;28;20464;-70
2022/03/28 10:24:36;;;;;;;17.20;13.10;;;31.50;46.30;;;;;;5089909;28;20568;-69
2022/03/28 10:27:05;;;;;;;17.10;13.03;;;30.90;46.10;;;;;;5088601;28;20464;-70
2022/03/28 10:29:38;;;;;;;14.87;12.20;;;30.50;47.00;;;;;;5089766;28;20458;-70
2022/03/28 10:32:09;;;;;;;15.63;12.43;;;30.20;48.60;;;;;;5089586;28;20749;-70
2022/03/28 10:34:44;;;;;;;16.23;13.20;;;30.50;47.10;;;;;;5091992;28;20471;-70
2022/03/28 10:37:33;;;;;;;15.93;13.17;;;30.70;47.50;;;;;;5092470;28;20482;-70
2022/03/28 10:40:23;;;;;;;17.53;12.73;;;30.90;46.80;;;;;;5093004;28;20468;-70
2022/03/28 10:42:53;;;;;;;13.43;11.77;;;30.60;48.30;;;;;;5092983;28;20460;-69
2022/03/28 10:45:21;;;;;;;15.10;12.57;;;30.80;47.50;;;;;;5093059;28;20541;-69
2022/03/28 10:47:52;;;;;;;15.80;11.80;;;30.90;47.20;;;;;;5092111;28;20527;-69
2022/03/28 10:50:21;;;;;;;12.07;10.60;;;31.00;43.00;;;;;;5093178;28;20466;-69
2022/03/28 10:53:13;;;;;;;13.70;11.43;;;31.20;40.50;;;;;;5092626;28;20469;-69
2022/03/28 10:55:46;;;;;;;11.47;10.27;;;30.70;37.70;;;;;;5092638;28;20488;-68
2022/03/28 10:58:18;;;;;;;12.30;10.90;;;31.40;38.40;;;;;;5092722;28;20463;-69
2022/03/28 11:01:27;;;;;;;11.77;10.57;;;31.70;39.60;;;;;;5093038;28;20827;-69
2022/03/28 11:04:07;;;;;;;11.83;10.50;;;32.20;39.50;;;;;;5092704;28;20460;-69
2022/03/28 11:06:59;;;;;;;11.50;10.40;;;32.60;39.40;;;;;;5092169;28;20474;-69
2022/03/28 11:09:51;;;;;;;11.10;10.00;;;33.20;37.70;;;;;;5092837;28;20508;-69
2022/03/28 11:12:20;;;;;;;13.43;11.67;;;33.20;36.50;;;;;;5092505;28;20463;-69
2022/03/28 11:15:01;;;;;;;11.40;10.30;;;33.10;37.30;;;;;;5092418;28;20458;-69
2022/03/28 11:17:31;;;;;;;11.90;10.30;;;33.50;37.40;;;;;;5091637;28;20484;-69
2022/03/28 11:20:13;;;;;;;13.37;11.00;;;33.60;36.40;;;;;;5092531;28;20944;-69
2022/03/28 11:22:44;;;;;;;14.37;12.70;;;33.10;36.90;;;;;;5092437;28;20464;-69
2022/03/28 11:25:46;;;;;;;15.10;11.77;;;32.90;36.20;;;;;;5092347;28;20488;-69
2022/03/28 11:28:26;;;;;;;13.77;11.50;;;32.40;36.30;;;;;;5009286;28;20461;-69
2022/03/28 11:30:59;;;;;;;14.43;10.80;;;32.40;36.50;;;;;;5009792;28;20916;-70
2022/03/28 11:33:34;;;;;;;14.17;11.47;;;31.10;36.80;;;;;;5058523;28;20465;-70
2022/03/28 11:36:02;;;;;;;13.63;10.80;;;30.00;38.80;;;;;;5091869;28;20503;-69
2022/03/28 11:38:31;;;;;;;13.90;12.43;;;30.40;40.10;;;;;;5091783;28;21143;-70
2022/03/28 11:40:59;;;;;;;15.40;11.77;;;30.90;38.60;;;;;;5092048;28;20507;-70
2022/03/28 11:43:30;;;;;;;11.00;9.80;;;30.70;39.50;;;;;;5092525;28;20460;-70
2022/03/28 11:45:58;;;;;;;15.50;11.60;;;30.90;40.30;;;;;;5090798;28;20489;-70
2022/03/28 11:48:25;;;;;;;11.20;10.03;;;31.70;39.00;;;;;;5091474;28;20460;-70
2022/03/28 11:50:55;;;;;;;13.73;10.93;;;32.10;39.90;;;;;;5091611;28;20460;-70
2022/03/28 11:53:22;;;;;;;13.13;11.13;;;32.50;40.30;;;;;;5092194;28;20853;-70
2022/03/28 11:55:53;;;;;;;12.67;11.37;;;32.70;37.50;;;;;;5091270;28;20490;-70
2022/03/28 11:58:29;;;;;;;13.37;11.20;;;32.40;39.50;;;;;;5091440;28;20808;-70
2022/03/28 12:01:04;;;;;;;15.63;11.73;;;32.30;39.70;;;;;;5091653;28;20967;-70
2022/03/28 12:03:31;;;;;;;13.20;11.80;;;32.10;38.40;;;;;;5091955;28;20466;-70
2022/03/28 12:06:00;;;;;;;12.43;10.97;;;32.40;39.80;;;;;;5091601;28;20550;-70
2022/03/28 12:08:29;;;;;;;12.60;11.30;;;33.00;39.20;;;;;;5091146;28;20956;-70
2022/03/28 12:10:55;;;;;;;14.10;12.70;;;33.40;39.50;;;;;;5091470;28;20483;-70
2022/03/28 12:13:23;;;;;;;19.40;13.83;;;33.70;41.30;;;;;;5091523;28;20457;-70
2022/03/28 12:15:52;;;;;;;19.33;15.03;;;34.00;40.80;;;;;;5091060;28;20862;-70
2022/03/28 12:18:21;;;;;;;16.53;14.50;;;33.70;41.20;;;;;;5090732;28;20468;-70
2022/03/28 12:20:51;;;;;;;19.27;15.43;;;33.40;41.40;;;;;;5091424;28;20832;-70
2022/03/28 12:23:21;;;;;;;16.67;13.30;;;33.00;40.70;;;;;;5091156;28;20461;-70
2022/03/28 12:25:50;;;;;;;18.63;14.73;;;32.50;42.60;;;;;;5091065;28;20472;-70
2022/03/28 12:28:19;;;;;;;17.43;14.03;;;32.50;42.40;;;;;;5090654;28;20461;-70
2022/03/28 12:30:49;;;;;;;20.23;14.90;;;32.80;42.30;;;;;;5090872;28;20509;-70
2022/03/28 12:33:18;;;;;;;16.90;15.10;;;32.60;42.30;;;;;;5091563;28;20451;-70
2022/03/28 12:35:47;;;;;;;18.83;16.70;;;32.50;41.80;;;;;;5090632;28;21020;-70
2022/03/28 12:38:20;;;;;;;18.33;14.63;;;32.40;42.50;;;;;;5090114;28;20502;-70
2022/03/28 12:40:51;;;;;;;15.90;14.20;;;31.80;44.50;;;;;;5090714;28;20457;-69
2022/03/28 12:43:18;;;;;;;17.37;14.53;;;31.70;44.20;;;;;;5091126;28;20461;-70
2022/03/28 12:45:45;;;;;;;18.07;14.40;;;31.40;44.30;;;;;;5087417;28;20482;-70
2022/03/28 12:48:13;;;;;;;20.43;16.17;;;32.10;44.70;;;;;;5090023;28;20464;-70